• Join FlightAware (Why Join?)
  • Login
  • US Flag 
07:49PM EDT


 

Airport Tracker/Info


-or-


 

Live Flight TrackerFlight Track Log ✈ CTL312 ✈ 30-Apr-2013 ✈ KBKL - KHAO

Flight Track Log - Related Links

Times and Time Zones

All times are in EDT time to prevent confusion due to time zone crossing. See the CTL312 flight status page for this flight to view local times or setup timezone preferences in your user account.

Time Position Orientation Groundspeed Altitude Reporting Facility
EDT Latitude Longitude Course Direction KTS MPH feet Rate Location/Type
06:43PM 41.5317 -81.6733 299° West 125 144 1,000  Level Cleveland Center
06:44PM 41.5581 -81.7375 299° West 167 192 2,200 900 Climbing Cleveland Center
06:45PM 41.5742 -81.7989 289° West 162 186 3,200 960 Climbing Cleveland Center
06:46PM 41.5881 -81.8492 290° West 157 181 4,200 960 Climbing Cleveland Center
06:47PM 41.5669 -81.8764 224° Southwest 125 144 5,100 780 Climbing Cleveland Center
06:48PM 41.5233 -81.8728 176° South 140 161 5,900 600 Climbing Cleveland Center
06:49PM 41.4919 -81.8861 198° South 150 173 6,400 540 Climbing Cleveland Center
06:50PM 41.4581 -81.9269 222° Southwest 159 183 7,000 540 Climbing Cleveland Center
06:51PM 41.4283 -81.9678 226° Southwest 159 183 7,500 420 Climbing Cleveland Center
06:52PM 41.3986 -82.0142 230° Southwest 159 183 7,900 240 Climbing Cleveland Center
06:53PM 41.3625 -82.0606 224° Southwest 170 196 8,100  Climbing Cleveland Center
06:54PM 41.3267 -82.1011 220° Southwest 180 207 8,000 -60 Descending Cleveland Center
06:56PM 41.2456 -82.2078 225° Southwest 174 200 8,000  Level Indianapolis Center
06:57PM 41.2108 -82.2558 226° Southwest 179 206 8,000  Level Indianapolis Center
06:58PM 41.1753 -82.3003 223° Southwest 175 201 8,000  Level Indianapolis Center
06:59PM 41.1403 -82.3453 224° Southwest 174 200 8,000  Level Indianapolis Center
07:01PM 41.1047 -82.3925 225° Southwest 178 205 8,000  Level Indianapolis Center
07:02PM 41.0706 -82.4394 226° Southwest 177 204 8,000  Level Indianapolis Center
07:03PM 41.0294 -82.4925 224° Southwest 176 203 8,000  Level Indianapolis Center
07:04PM 40.9961 -82.5406 227° Southwest 176 203 8,000  Level Indianapolis Center
07:05PM 40.9608 -82.5858 224° Southwest 175 201 8,000  Level Indianapolis Center
07:06PM 40.9261 -82.6325 225° Southwest 176 203 8,000 -60 Level Indianapolis Center
07:07PM 40.8900 -82.6761 222° Southwest 175 201 7,900  Descending Indianapolis Center
07:08PM 40.8561 -82.7231 226° Southwest 175 201 8,000  Climbing Indianapolis Center
07:09PM 40.8225 -82.7703 227° Southwest 175 201 8,000  Level Indianapolis Center
07:10PM 40.7864 -82.8156 224° Southwest 177 204 8,000  Level Indianapolis Center
07:11PM 40.7458 -82.8694 225° Southwest 176 203 8,000  Level Indianapolis Center
07:12PM 40.7097 -82.9144 223° Southwest 177 204 8,000  Level Indianapolis Center
07:13PM 40.6744 -82.9600 224° Southwest 177 204 8,000  Level Indianapolis Center
07:14PM 40.6394 -83.0072 226° Southwest 178 205 8,000 -60 Level Indianapolis Center
07:15PM 40.6047 -83.0547 226° Southwest 179 206 7,900  Descending Indianapolis Center
07:16PM 40.5703 -83.1011 226° Southwest 176 203 8,000  Climbing Indianapolis Center
07:17PM 40.5356 -83.1497 227° Southwest 180 207 8,000  Level Indianapolis Center
07:18PM 40.4975 -83.2011 226° Southwest 176 203 8,000  Level Indianapolis Center
07:19PM 40.4644 -83.2497 228° Southwest 178 205 8,000  Level Indianapolis Center
07:20PM 40.4286 -83.2967 225° Southwest 180 207 8,000  Level Indianapolis Center
07:21PM 40.3914 -83.3408 222° Southwest 180 207 8,000  Level Indianapolis Center
07:22PM 40.3547 -83.3856 223° Southwest 177 204 8,000  Level Indianapolis Center
07:23PM 40.3181 -83.4303 223° Southwest 179 206 8,000  Level Indianapolis Center
07:24PM 40.2792 -83.4775 223° Southwest 180 207 8,000  Level Indianapolis Center
07:25PM 40.2403 -83.5219 221° Southwest 180 207 8,000  Level Indianapolis Center
07:26PM 40.2036 -83.5639 221° Southwest 178 205 8,000 -120 Level Indianapolis Center
07:27PM 40.1611 -83.6022 215° Southwest 188 216 7,800  Descending Indianapolis Center
07:28PM 40.1267 -83.6444 223° Southwest 174 200 8,000 120 Climbing Indianapolis Center
07:28PM 40.1200 -83.6514 219° Southwest 180 207 8,000  Level Indianapolis Center
07:29PM 40.0897 -83.6889 223° Southwest 173 199 8,000  Level Indianapolis Center
07:29PM 40.0836 -83.6953 219° Southwest 178 205 8,000  Level Indianapolis Center
07:30PM 40.0508 -83.7331 221° Southwest 177 204 8,000  Level Indianapolis Center
07:30PM 40.0475 -83.7389 233° Southwest 177 204 8,000  Level Indianapolis Center
07:31PM 40.0161 -83.7778 224° Southwest 178 205 8,000  Level Indianapolis Center
07:31PM 40.0056 -83.7906 223° Southwest 177 204 8,000  Level Indianapolis Center
07:32PM 39.9794 -83.8219 223° Southwest 176 203 8,000  Level Indianapolis Center
07:32PM 39.9689 -83.8336 220° Southwest 177 204 8,000  Level Indianapolis Center
07:33PM 39.9447 -83.8639 224° Southwest 177 204 8,000  Level Indianapolis Center
07:34PM 39.9336 -83.8781 224° Southwest 176 203 8,000  Level Indianapolis Center
07:34PM 39.9078 -83.9081 222° Southwest 176 203 8,000  Level Indianapolis Center
07:35PM 39.8969 -83.9197 220° Southwest 175 201 8,000  Level Indianapolis Center
07:35PM 39.8689 -83.9522 222° Southwest 174 200 8,000  Level Indianapolis Center
07:36PM 39.8600 -83.9625 222° Southwest 176 203 8,000  Level Indianapolis Center
07:36PM 39.8319 -83.9964 223° Southwest 177 204 8,000  Level Indianapolis Center
07:37PM 39.8233 -84.0056 219° Southwest 177 204 8,000  Level Indianapolis Center
07:37PM 39.7997 -84.0356 224° Southwest 177 204 8,000  Level Indianapolis Center
07:38PM 39.7869 -84.0497 220° Southwest 177 204 8,000 -120 Level Indianapolis Center
07:38PM 39.7558 -84.0869 223° Southwest 179 206 7,900 -240 Descending Indianapolis Center
07:39PM 39.7436 -84.1017 223° Southwest 179 206 7,800 -540 Descending Indianapolis Center
07:40PM 39.7031 -84.1472 221° Southwest 188 216 7,200 -660 Descending Indianapolis Center
07:41PM 39.6608 -84.1950 221° Southwest 197 227 6,500 -600 Descending Indianapolis Center
07:42PM 39.6217 -84.2419 223° Southwest 194 223 6,000 -600 Descending Indianapolis Center
07:43PM 39.5822 -84.2858 221° Southwest 189 217 5,300 -720 Descending Indianapolis Center
07:44PM 39.5436 -84.3278 220° Southwest 184 212 4,600 -780 Descending Indianapolis Center
07:45PM 39.5025 -84.3656 215° Southwest 180 207 3,800 -720 Descending Indianapolis Center
07:46PM 39.4561 -84.4072 215° Southwest 180 207 3,200 -600 Descending Indianapolis Center
07:48PM 39.3919 -84.4581 218° Southwest  Level FlightAware Approximate
07:55PM 39.3500 -84.5167 229° Southwest  Level FlightAware Approximate
07:56PM 39.3638 -84.5219 229° Southwest  Level Estimated
07:57PM 39.3638 -84.5219 229° Southwest  Level Estimated
07:58PM 39.3638 -84.5219 229° Southwest  Level Estimated